createdAt,value
2018-04-12T00:00:22.624Z,16.97
2018-04-12T00:02:48.817Z,18.63
2018-04-12T00:05:14.984Z,15.37
2018-04-12T00:07:41.343Z,29.13
2018-04-12T00:10:07.503Z,19.73
2018-04-12T00:12:33.706Z,12.03
2018-04-12T00:14:59.865Z,19.20
2018-04-12T00:17:26.006Z,15.13
2018-04-12T00:19:54.303Z,19.73
2018-04-12T00:22:21.223Z,23.17
2018-04-12T00:24:47.390Z,16.83
2018-04-12T00:27:14.329Z,16.33
2018-04-12T00:29:40.491Z,20.03
2018-04-12T00:32:06.649Z,19.80
2018-04-12T00:34:32.842Z,22.93
2018-04-12T00:36:59.750Z,13.67
2018-04-12T00:39:25.896Z,18.73
2018-04-12T00:41:52.087Z,11.77
2018-04-12T00:44:18.275Z,17.40
2018-04-12T00:46:44.447Z,15.70
2018-04-12T00:49:10.618Z,26.13
2018-04-12T00:51:36.839Z,12.60
2018-04-12T00:54:04.850Z,23.77
2018-04-12T00:56:31.789Z,17.40
2018-04-12T00:58:57.943Z,18.80
2018-04-12T01:01:24.850Z,20.53
2018-04-12T01:03:51.039Z,17.43
2018-04-12T01:06:17.944Z,14.73
2018-04-12T01:08:44.308Z,14.20
2018-04-12T01:11:10.495Z,12.43
2018-04-12T01:13:36.679Z,10.37
2018-04-12T01:16:02.842Z,21.53
2018-04-12T01:18:29.043Z,14.70
2018-04-12T01:20:55.274Z,19.93
2018-04-12T01:23:21.441Z,11.57
2018-04-12T01:25:47.615Z,17.23
2018-04-12T01:28:13.771Z,16.00
2018-04-12T01:30:39.946Z,23.80
2018-04-12T01:33:16.410Z,17.47
2018-04-12T01:35:42.566Z,36.60
2018-04-12T01:38:08.728Z,12.93
2018-04-12T01:40:35.650Z,20.87
2018-04-12T01:43:01.834Z,22.13
2018-04-12T01:45:28.735Z,18.50
2018-04-12T01:47:54.898Z,18.10
2018-04-12T01:50:21.067Z,26.80
2018-04-12T01:52:47.984Z,23.00
2018-04-12T01:55:14.146Z,22.53
2018-04-12T01:57:41.095Z,17.17
2018-04-12T02:00:07.319Z,21.97
2018-04-12T02:02:33.463Z,19.50
2018-04-12T02:05:00.357Z,16.17
2018-04-12T02:07:26.554Z,18.17
2018-04-12T02:09:52.948Z,27.90
2018-04-12T02:12:19.151Z,28.50
2018-04-12T02:14:45.330Z,18.10
2018-04-12T02:17:12.259Z,21.40
2018-04-12T02:19:38.418Z,17.87
2018-04-12T02:22:05.370Z,19.90
2018-04-12T02:24:32.271Z,19.90
2018-04-12T02:26:58.413Z,21.67
2018-04-12T02:29:24.575Z,27.57
2018-04-12T02:31:50.759Z,28.43
2018-04-12T02:34:17.094Z,24.67
2018-04-12T02:36:43.250Z,32.60
2018-04-12T02:39:09.406Z,19.43
2018-04-12T02:41:35.563Z,18.90
2018-04-12T02:44:02.484Z,25.07
2018-04-12T02:46:28.639Z,25.93
2018-04-12T02:48:55.592Z,24.63
2018-04-12T02:51:21.726Z,28.17
2018-04-12T02:53:48.627Z,33.33
2018-04-12T02:56:14.803Z,37.67
2018-04-12T02:58:41.200Z,17.77
2018-04-12T03:01:07.500Z,23.20
2018-04-12T03:03:34.409Z,25.90
2018-04-12T03:06:00.575Z,26.10
2018-04-12T03:08:26.744Z,27.53
2018-04-12T03:10:53.808Z,27.13
2018-04-12T03:13:19.950Z,26.63
2018-04-12T03:15:46.094Z,26.20
2018-04-12T03:18:12.263Z,25.50
2018-04-12T03:20:39.164Z,18.00
2018-04-12T03:23:05.370Z,30.87
2018-04-12T03:25:31.557Z,35.70
2018-04-12T03:27:57.760Z,22.60
2018-04-12T03:30:23.920Z,25.27
2018-04-12T03:32:50.826Z,31.83
2018-04-12T03:35:16.971Z,28.13
2018-04-12T03:37:43.156Z,24.53
2018-04-12T03:40:10.066Z,25.90
2018-04-12T03:42:36.229Z,26.37
2018-04-12T03:45:02.400Z,26.17
2018-04-12T03:47:28.575Z,28.67
2018-04-12T03:49:54.739Z,26.33
2018-04-12T03:52:20.912Z,31.67
2018-04-12T03:54:47.059Z,39.00
2018-04-12T03:57:13.224Z,21.50
2018-04-12T03:59:39.356Z,31.43
2018-04-12T04:02:05.538Z,26.77
2018-04-12T04:04:31.818Z,31.50
2018-04-12T04:06:58.038Z,31.40
2018-04-12T04:09:24.203Z,25.33
2018-04-12T04:11:50.600Z,27.17
2018-04-12T04:14:29.256Z,27.93
2018-04-12T04:17:08.633Z,28.60
2018-04-12T04:19:47.150Z,28.40
2018-04-12T04:22:16.192Z,35.17
2018-04-12T04:24:42.378Z,19.80
2018-04-12T04:27:08.554Z,29.33
2018-04-12T04:29:34.706Z,23.70
2018-04-12T04:32:01.583Z,31.03
2018-04-12T04:34:27.742Z,27.63
2018-04-12T04:36:53.902Z,38.77
2018-04-12T04:39:20.081Z,31.17
2018-04-12T04:41:46.274Z,28.23
2018-04-12T04:44:13.177Z,36.37
2018-04-12T04:46:39.360Z,20.17
2018-04-12T04:49:05.517Z,24.53
2018-04-12T04:51:31.718Z,25.00
2018-04-12T04:53:58.644Z,22.43
2018-04-12T04:56:24.810Z,25.10
2018-04-12T04:58:50.959Z,21.17
2018-04-12T05:01:18.067Z,31.70
2018-04-12T05:03:44.230Z,36.03
2018-04-12T05:06:10.438Z,27.10
2018-04-12T05:08:36.594Z,41.97
2018-04-12T05:11:02.755Z,34.50
2018-04-12T05:13:29.062Z,28.03
2018-04-12T05:15:55.242Z,40.70
2018-04-12T05:18:21.405Z,27.00
2018-04-12T05:20:47.572Z,23.30
2018-04-12T05:23:14.494Z,26.50
2018-04-12T05:25:40.887Z,26.90
2018-04-12T05:28:07.070Z,30.23
2018-04-12T05:30:33.203Z,31.47
2018-04-12T05:32:59.427Z,27.93
2018-04-12T05:35:25.590Z,29.77
2018-04-12T05:37:53.218Z,27.93
2018-04-12T05:40:19.391Z,32.70
2018-04-12T05:42:46.290Z,28.57
2018-04-12T05:45:12.464Z,34.70
2018-04-12T05:47:38.775Z,32.90
2018-04-12T05:50:04.962Z,32.83
2018-04-12T05:52:31.863Z,30.97
2018-04-12T05:54:58.023Z,39.17
2018-04-12T05:57:24.169Z,40.80
2018-04-12T05:59:51.080Z,35.03
2018-04-12T06:02:17.278Z,32.20
2018-04-12T06:04:43.426Z,25.77
2018-04-12T06:07:09.574Z,32.67
2018-04-12T06:09:35.740Z,27.37
2018-04-12T06:12:02.735Z,27.50
2018-04-12T06:14:29.073Z,32.43
2018-04-12T06:16:55.230Z,29.23
2018-04-12T06:19:21.386Z,31.83
2018-04-12T06:21:47.558Z,28.30
2018-04-12T06:24:13.734Z,41.67
2018-04-12T06:26:40.018Z,26.60
2018-04-12T06:29:13.802Z,22.20
2018-04-12T06:31:40.721Z,25.87
2018-04-12T06:34:06.887Z,33.73
2018-04-12T06:36:33.026Z,26.90
2018-04-12T06:38:59.197Z,23.80
2018-04-12T06:41:25.341Z,29.23
2018-04-12T06:43:51.773Z,31.43
2018-04-12T06:46:17.937Z,37.87
2018-04-12T06:48:44.135Z,33.40
2018-04-12T06:51:10.347Z,26.67
2018-04-12T06:53:36.598Z,27.40
2018-04-12T06:56:02.746Z,32.23
2018-04-12T06:58:28.918Z,31.20
2018-04-12T07:00:55.867Z,24.07
2018-04-12T07:03:22.050Z,27.70
2018-04-12T07:05:48.231Z,28.33
2018-04-12T07:08:14.388Z,33.53
2018-04-12T07:10:41.293Z,41.43
2018-04-12T07:13:07.461Z,33.03
2018-04-12T07:15:33.891Z,41.87
2018-04-12T07:18:00.047Z,34.30
2018-04-12T07:20:26.937Z,31.77
2018-04-12T07:22:53.136Z,23.93
2018-04-12T07:25:19.312Z,34.90
2018-04-12T07:27:45.542Z,32.73
2018-04-12T07:30:11.719Z,26.13
2018-04-12T07:32:38.610Z,26.00
2018-04-12T07:35:04.952Z,26.73
2018-04-12T07:37:31.091Z,29.20
2018-04-12T07:39:57.242Z,34.13
2018-04-12T07:42:24.153Z,36.80
2018-04-12T07:44:50.334Z,31.03
2018-04-12T07:47:16.514Z,29.83
2018-04-12T07:49:42.678Z,28.50
2018-04-12T07:52:08.827Z,32.83
2018-04-12T07:54:35.003Z,36.93
2018-04-12T07:57:01.899Z,39.10
2018-04-12T07:59:28.063Z,27.97
2018-04-12T08:01:54.238Z,34.80
2018-04-12T08:04:20.400Z,27.20
2018-04-12T08:06:46.827Z,32.70
2018-04-12T08:09:12.994Z,36.33
2018-04-12T08:11:39.151Z,24.67
2018-04-12T08:14:06.093Z,31.60
2018-04-12T08:16:32.424Z,34.50
2018-04-12T08:18:59.322Z,37.07
2018-04-12T08:21:25.528Z,35.87
2018-04-12T08:23:52.418Z,33.30
2018-04-12T08:26:18.553Z,34.90
2018-04-12T08:28:44.871Z,33.57
2018-04-12T08:31:11.023Z,29.97
2018-04-12T08:33:37.183Z,28.03
2018-04-12T08:36:05.082Z,32.90
2018-04-12T08:38:31.967Z,25.37
2018-04-12T08:40:58.315Z,32.33
2018-04-12T08:43:24.495Z,30.90
2018-04-12T08:45:51.442Z,34.80
2018-04-12T08:48:18.338Z,30.67
2018-04-12T08:50:44.498Z,29.70
2018-04-12T08:53:10.671Z,31.10
2018-04-12T08:55:37.570Z,32.87
2018-04-12T08:58:03.701Z,25.47
2018-04-12T09:00:29.849Z,34.87
2018-04-12T09:02:55.983Z,26.53
2018-04-12T09:05:22.386Z,35.30
2018-04-12T09:07:48.553Z,36.50
2018-04-12T09:10:14.718Z,31.10
2018-04-12T09:12:40.890Z,35.20
2018-04-12T09:15:07.039Z,28.07
2018-04-12T09:17:33.550Z,31.77
2018-04-12T09:19:59.711Z,28.80
2018-04-12T09:22:25.873Z,32.07
2018-04-12T09:24:52.029Z,31.47
2018-04-12T09:27:18.967Z,34.80
2018-04-12T09:29:45.867Z,39.43
2018-04-12T09:32:12.039Z,29.77
2018-04-12T09:34:38.197Z,32.73
2018-04-12T09:37:04.350Z,32.50
2018-04-12T09:39:30.507Z,31.77
2018-04-12T09:41:57.458Z,38.63
2018-04-12T09:44:23.614Z,31.90
2018-04-12T09:46:49.762Z,29.73
2018-04-12T09:49:15.960Z,30.00
2018-04-12T09:51:42.075Z,29.67
2018-04-12T09:54:08.214Z,27.83
2018-04-12T09:56:35.889Z,32.67
2018-04-12T09:59:02.111Z,28.10
2018-04-12T10:01:28.261Z,32.47
2018-04-12T10:03:54.405Z,45.60
2018-04-12T10:06:22.055Z,39.70
2018-04-12T10:08:54.427Z,30.00
2018-04-12T10:11:20.539Z,47.07
2018-04-12T10:13:46.730Z,31.80
2018-04-12T10:16:12.870Z,28.90
2018-04-12T10:18:39.022Z,45.83
2018-04-12T10:21:05.226Z,35.30
2018-04-12T10:23:31.358Z,30.57
2018-04-12T10:25:57.530Z,29.80
2018-04-12T10:28:23.710Z,32.03
2018-04-12T10:30:50.630Z,30.87
2018-04-12T10:33:16.788Z,31.60
2018-04-12T10:35:43.197Z,27.90
2018-04-12T10:38:09.404Z,34.70
2018-04-12T10:40:36.290Z,33.87
2018-04-12T10:43:02.468Z,31.00
2018-04-12T10:45:28.626Z,42.73
2018-04-12T10:47:55.510Z,34.83
2018-04-12T10:50:21.746Z,34.87
2018-04-12T10:52:47.952Z,31.53
2018-04-12T10:55:14.127Z,36.57
2018-04-12T10:57:41.050Z,37.93
2018-04-12T11:00:07.212Z,34.43
2018-04-12T11:02:33.377Z,36.37
2018-04-12T11:05:00.317Z,34.40
2018-04-12T11:07:26.435Z,34.50
2018-04-12T11:09:52.623Z,31.00
2018-04-12T11:12:18.790Z,32.00
2018-04-12T11:14:45.231Z,35.13
2018-04-12T11:17:11.381Z,35.37
2018-04-12T11:19:37.787Z,29.93
2018-04-12T11:22:03.947Z,34.30
2018-04-12T11:24:30.116Z,36.70
2018-04-12T11:26:56.351Z,33.60
2018-04-12T11:29:22.539Z,36.73
2018-04-12T11:31:48.673Z,36.10
2018-04-12T11:34:15.619Z,37.53
2018-04-12T11:36:41.743Z,39.83
2018-04-12T11:39:07.894Z,36.73
2018-04-12T11:41:34.086Z,38.80
2018-04-12T11:44:00.216Z,43.93
2018-04-12T11:46:26.391Z,38.70
2018-04-12T11:48:54.017Z,37.00
2018-04-12T11:51:20.206Z,40.63
2018-04-12T11:53:47.102Z,42.50
2018-04-12T11:56:13.299Z,42.10
2018-04-12T11:58:39.482Z,29.13
2018-04-12T12:01:05.766Z,37.03
2018-04-12T12:03:32.664Z,35.57
2018-04-12T12:05:59.702Z,35.07
2018-04-12T12:08:25.880Z,33.80
2018-04-12T12:10:52.010Z,36.57
2018-04-12T12:13:18.193Z,34.27
2018-04-12T12:15:44.375Z,33.53
2018-04-12T12:18:10.556Z,39.90
2018-04-12T12:20:36.972Z,36.33
2018-04-12T12:23:03.850Z,38.70
2018-04-12T12:25:29.986Z,36.00
2018-04-12T12:27:56.143Z,38.93
2018-04-12T12:30:22.354Z,39.27
2018-04-12T12:32:48.529Z,36.73
2018-04-12T12:35:14.759Z,42.77
2018-04-12T12:37:40.898Z,32.43
2018-04-12T12:40:07.062Z,44.93
2018-04-12T12:42:34.957Z,36.30
2018-04-12T12:45:01.100Z,39.70
2018-04-12T12:47:27.258Z,43.73
2018-04-12T12:49:55.214Z,32.80
2018-04-12T12:52:21.484Z,30.40
2018-04-12T12:54:49.385Z,36.47
2018-04-12T12:57:15.543Z,39.37
2018-04-12T12:59:41.712Z,38.87
2018-04-12T13:02:07.869Z,41.90
2018-04-12T13:04:35.774Z,40.47
2018-04-12T13:07:01.906Z,41.07
2018-04-12T13:09:28.094Z,35.10
2018-04-12T13:11:56.034Z,42.13
2018-04-12T13:14:22.171Z,36.63
2018-04-12T13:16:49.270Z,37.70
2018-04-12T13:19:15.433Z,40.77
2018-04-12T13:21:42.474Z,48.70
2018-04-12T13:24:08.683Z,41.70
2018-04-12T13:26:35.574Z,41.60
2018-04-12T13:29:01.718Z,41.77
2018-04-12T13:31:28.826Z,38.93
2018-04-12T13:33:54.990Z,35.37
2018-04-12T13:36:21.138Z,42.67
2018-04-12T13:38:47.307Z,41.70
2018-04-12T13:41:14.214Z,44.33
2018-04-12T13:43:40.362Z,37.53
2018-04-12T13:46:06.540Z,38.17
2018-04-12T13:48:32.705Z,38.60
2018-04-12T13:50:58.865Z,41.83
2018-04-12T13:53:25.827Z,44.00
2018-04-12T13:55:52.002Z,49.00
2018-04-12T13:58:18.890Z,45.03
2018-04-12T14:00:45.039Z,47.07
2018-04-12T14:03:11.178Z,48.23
2018-04-12T14:05:39.120Z,37.70
2018-04-12T14:08:05.271Z,42.40
2018-04-12T14:10:31.416Z,44.20
2018-04-12T14:12:57.567Z,45.10
2018-04-12T14:15:23.773Z,45.00
2018-04-12T14:17:49.934Z,40.23
2018-04-12T14:20:17.571Z,41.33
2018-04-12T14:22:43.939Z,37.57
2018-04-12T14:25:10.097Z,45.07
2018-04-12T14:27:37.005Z,44.73
2018-04-12T14:30:03.921Z,35.73
2018-04-12T14:32:30.076Z,37.80
2018-04-12T14:34:56.263Z,35.17
2018-04-12T14:37:22.415Z,39.03
2018-04-12T14:39:48.578Z,36.70
2018-04-12T14:42:14.767Z,37.07
2018-04-12T14:44:41.682Z,32.50
2018-04-12T14:47:08.575Z,38.53
2018-04-12T14:49:34.705Z,33.40
2018-04-12T14:52:00.874Z,37.50
2018-04-12T14:54:27.048Z,43.60
2018-04-12T14:56:53.936Z,49.13
2018-04-12T14:59:20.082Z,39.30
2018-04-12T15:01:46.222Z,48.43
2018-04-12T15:04:12.393Z,48.53
2018-04-12T15:06:39.462Z,34.17
2018-04-12T15:09:06.587Z,36.47
2018-04-12T15:11:33.506Z,36.70
2018-04-12T15:13:59.662Z,35.47
2018-04-12T15:16:27.330Z,38.33
2018-04-12T15:18:54.280Z,40.70
2018-04-12T15:21:20.423Z,36.90
2018-04-12T15:23:46.759Z,34.00
2018-04-12T15:26:12.975Z,34.43
2018-04-12T15:28:39.156Z,39.03
2018-04-12T15:31:05.311Z,35.40
2018-04-12T15:33:31.494Z,42.50
2018-04-12T15:35:58.460Z,41.47
2018-04-12T15:38:24.691Z,37.90
2018-04-12T15:40:50.786Z,35.13
2018-04-12T15:43:16.928Z,32.13
2018-04-12T15:45:43.092Z,40.27
2018-04-12T15:48:09.991Z,41.30
2018-04-12T15:50:36.158Z,35.47
2018-04-12T15:53:04.087Z,40.10
2018-04-12T15:55:30.378Z,41.23
2018-04-12T15:57:58.294Z,38.67
2018-04-12T16:00:24.449Z,36.60
2018-04-12T16:02:50.634Z,36.53
2018-04-12T16:05:17.595Z,42.97
2018-04-12T16:07:43.762Z,40.97
2018-04-12T16:10:09.916Z,34.50
2018-04-12T16:12:36.079Z,38.53
2018-04-12T16:15:02.971Z,40.83
2018-04-12T16:17:29.158Z,42.93
2018-04-12T16:19:56.079Z,38.37
2018-04-12T16:22:22.268Z,41.80
2018-04-12T16:24:48.638Z,39.30
2018-04-12T16:27:14.849Z,38.13
2018-04-12T16:29:40.986Z,36.53
2018-04-12T16:32:07.217Z,44.60
2018-04-12T16:34:33.402Z,42.57
2018-04-12T16:37:00.355Z,39.97
2018-04-12T16:39:27.987Z,38.63
2018-04-12T16:41:54.247Z,36.83
2018-04-12T16:44:21.171Z,44.93
2018-04-12T16:46:47.323Z,40.50
2018-04-12T16:49:13.491Z,43.53
2018-04-12T16:51:39.701Z,47.33
2018-04-12T16:54:05.868Z,37.43
2018-04-12T16:56:32.065Z,41.13
2018-04-12T16:58:58.983Z,38.07
2018-04-12T17:01:25.146Z,34.83
2018-04-12T17:03:52.757Z,45.87
2018-04-12T17:06:18.915Z,34.13
2018-04-12T17:08:45.098Z,34.47
2018-04-12T17:11:11.294Z,36.37
2018-04-12T17:13:37.481Z,38.77
2018-04-12T17:16:03.657Z,33.80
2018-04-12T17:18:29.833Z,40.30
2018-04-12T17:20:56.735Z,34.70
2018-04-12T17:23:22.891Z,46.30
2018-04-12T17:25:49.486Z,47.70
2018-04-12T17:28:15.686Z,37.90
2018-04-12T17:30:42.607Z,37.80
2018-04-12T17:33:10.513Z,37.63
2018-04-12T17:35:38.567Z,35.97
2018-04-12T17:38:06.518Z,42.08
2018-04-12T17:40:32.667Z,42.60
2018-04-12T17:43:00.573Z,35.43
2018-04-12T17:45:26.738Z,33.17
2018-04-12T17:47:52.962Z,35.30
2018-04-12T17:50:19.297Z,40.30
2018-04-12T17:52:45.510Z,42.00
2018-04-12T17:55:13.402Z,32.20
2018-04-12T17:57:39.638Z,31.63
2018-04-12T18:00:05.810Z,35.40
2018-04-12T18:02:32.010Z,37.53
2018-04-12T18:04:58.170Z,29.67
2018-04-12T18:07:24.330Z,37.60
2018-04-12T18:09:50.518Z,33.30
2018-04-12T18:12:16.676Z,28.13
2018-04-12T18:14:42.839Z,27.27
2018-04-12T18:17:09.770Z,31.77
2018-04-12T18:19:36.660Z,29.60
2018-04-12T18:22:03.589Z,25.93
2018-04-12T18:24:30.522Z,29.00
2018-04-12T18:26:57.633Z,36.17
2018-04-12T18:29:23.790Z,29.13
2018-04-12T18:31:49.971Z,32.73
2018-04-12T18:34:16.878Z,23.37
2018-04-12T18:36:43.050Z,33.47
2018-04-12T18:39:09.950Z,36.30
2018-04-12T18:41:36.106Z,34.23
2018-04-12T18:44:03.745Z,29.93
2018-04-12T18:46:29.980Z,32.33
2018-04-12T18:48:56.170Z,33.53
2018-04-12T18:51:22.366Z,37.97
2018-04-12T18:53:48.546Z,40.80
2018-04-12T18:56:15.476Z,32.20
2018-04-12T18:58:41.656Z,30.27
2018-04-12T19:01:07.810Z,37.33
2018-04-12T19:03:36.571Z,35.67
2018-04-12T19:06:04.386Z,31.20
2018-04-12T19:08:31.325Z,41.73
2018-04-12T19:10:57.469Z,37.50
2018-04-12T19:13:24.390Z,31.87
2018-04-12T19:15:50.574Z,26.80
2018-04-12T19:18:16.773Z,38.13
2018-04-12T19:20:43.109Z,36.00
2018-04-12T19:23:09.321Z,31.70
2018-04-12T19:25:35.498Z,31.90
2018-04-12T19:28:01.944Z,33.40
2018-04-12T19:30:28.880Z,32.70
2018-04-12T19:32:55.061Z,32.60
2018-04-12T19:35:21.270Z,35.23
2018-04-12T19:37:48.166Z,32.03
2018-04-12T19:40:14.494Z,38.40
2018-04-12T19:42:40.659Z,35.07
2018-04-12T19:45:06.838Z,36.37
2018-04-12T19:47:33.763Z,30.13
2018-04-12T19:49:59.954Z,37.43
2018-04-12T19:52:26.113Z,40.97
2018-04-12T19:54:52.290Z,47.77
2018-04-12T19:57:18.509Z,30.50
2018-04-12T19:59:45.414Z,36.20
2018-04-12T20:02:11.590Z,37.47
2018-04-12T20:04:38.502Z,39.80
2018-04-12T20:07:04.713Z,38.77
2018-04-12T20:09:30.870Z,39.17
2018-04-12T20:11:57.001Z,32.53
2018-04-12T20:14:23.194Z,39.90
2018-04-12T20:16:49.390Z,45.37
2018-04-12T20:19:15.554Z,45.00
2018-04-12T20:21:42.467Z,48.07
2018-04-12T20:24:08.657Z,43.20
2018-04-12T20:26:34.850Z,45.60
2018-04-12T20:29:01.274Z,35.50
2018-04-12T20:31:28.174Z,39.00
2018-04-12T20:33:54.323Z,38.03
2018-04-12T20:36:20.538Z,40.27
2018-04-12T20:38:46.717Z,35.77
2018-04-12T20:41:12.923Z,40.47
2018-04-12T20:43:39.119Z,38.37
2018-04-12T20:46:06.795Z,36.57
2018-04-12T20:48:34.682Z,38.60
2018-04-12T20:51:00.849Z,33.93
2018-04-12T20:53:27.010Z,33.50
2018-04-12T20:55:53.950Z,35.20
2018-04-12T20:58:21.615Z,34.17
2018-04-12T21:00:49.310Z,43.70
2018-04-12T21:03:15.485Z,34.13
2018-04-12T21:05:41.650Z,32.03
2018-04-12T21:08:07.827Z,35.50
2018-04-12T21:10:33.986Z,39.70
2018-04-12T21:13:00.178Z,37.70
2018-04-12T21:15:26.417Z,29.23
2018-04-12T21:17:53.310Z,32.67
2018-04-12T21:20:19.491Z,30.13
2018-04-12T21:22:46.402Z,30.30
2018-04-12T21:25:12.598Z,41.23
2018-04-12T21:27:38.769Z,40.67
2018-04-12T21:30:05.087Z,38.63
2018-04-12T21:32:31.530Z,34.17
2018-04-12T21:34:57.709Z,34.03
2018-04-12T21:37:24.648Z,38.27
2018-04-12T21:39:50.804Z,36.67
2018-04-12T21:42:17.699Z,33.83
2018-04-12T21:44:43.875Z,28.63
2018-04-12T21:47:10.774Z,31.10
2018-04-12T21:49:36.930Z,38.00
2018-04-12T21:52:04.890Z,34.70
2018-04-12T21:54:31.082Z,32.10
2018-04-12T21:56:57.978Z,32.23
2018-04-12T21:59:24.174Z,41.50
2018-04-12T22:01:50.394Z,31.90
2018-04-12T22:04:18.014Z,34.53
2018-04-12T22:06:44.183Z,33.40
2018-04-12T22:09:11.095Z,35.03
2018-04-12T22:11:37.262Z,37.43
2018-04-12T22:14:03.419Z,40.53
2018-04-12T22:16:29.587Z,29.97
2018-04-12T22:18:55.747Z,34.83
2018-04-12T22:21:22.680Z,44.77
2018-04-12T22:23:48.876Z,37.47
2018-04-12T22:26:15.042Z,41.93
2018-04-12T22:28:41.470Z,36.53
2018-04-12T22:31:07.803Z,36.13
2018-04-12T22:33:33.962Z,31.20
2018-04-12T22:36:00.107Z,36.27
2018-04-12T22:38:26.299Z,42.77
2018-04-12T22:40:53.174Z,34.90
2018-04-12T22:43:19.374Z,31.20
2018-04-12T22:45:45.618Z,34.20
2018-04-12T22:48:11.783Z,39.03
2018-04-12T22:50:37.966Z,37.70
2018-04-12T22:53:04.139Z,37.43
2018-04-12T22:55:31.075Z,30.47
2018-04-12T22:57:57.271Z,42.03
2018-04-12T23:00:23.459Z,41.23
2018-04-12T23:02:49.663Z,30.50
2018-04-12T23:05:15.809Z,47.00
2018-04-12T23:07:42.142Z,35.60
2018-04-12T23:10:08.318Z,39.63
2018-04-12T23:12:34.497Z,44.07
2018-04-12T23:15:00.643Z,34.87
2018-04-12T23:17:26.817Z,34.50
2018-04-12T23:19:53.735Z,40.70
2018-04-12T23:22:19.906Z,37.13
2018-04-12T23:24:46.821Z,46.83
2018-04-12T23:27:13.014Z,34.27
2018-04-12T23:29:39.201Z,42.27
2018-04-12T23:32:05.565Z,36.13
2018-04-12T23:34:31.710Z,41.67
2018-04-12T23:36:57.871Z,37.37
2018-04-12T23:39:24.031Z,37.67
2018-04-12T23:41:50.214Z,41.57
2018-04-12T23:44:16.413Z,39.40
2018-04-12T23:46:42.578Z,39.17
2018-04-12T23:49:09.470Z,45.33
2018-04-12T23:51:35.618Z,37.13
2018-04-12T23:54:03.285Z,38.20
2018-04-12T23:56:29.464Z,47.57
2018-04-12T23:58:55.659Z,39.50
